createdAt,value
2023-04-02T08:31:17.216Z,9.23
2023-04-02T08:36:20.120Z,9.32
2023-04-02T08:41:27.626Z,9.25
2023-04-02T08:46:41.320Z,9.21
2023-04-02T08:51:45.051Z,9.24
2023-04-02T08:56:55.566Z,9.27
2023-04-02T09:02:21.681Z,9.25
2023-04-02T09:07:23.904Z,9.29
2023-04-02T09:12:29.531Z,9.37
2023-04-02T09:17:42.798Z,9.36
2023-04-02T09:22:51.303Z,9.42
2023-04-02T09:27:55.656Z,9.47
2023-04-02T09:33:07.816Z,9.49
2023-04-02T09:38:09.847Z,9.45
2023-04-02T09:43:18.031Z,9.47
2023-04-02T09:48:33.864Z,9.51
2023-04-02T09:53:42.533Z,9.60
2023-04-02T09:58:46.104Z,9.59
2023-04-02T10:03:47.901Z,9.74
2023-04-02T10:08:49.681Z,9.84
2023-04-02T10:14:04.584Z,9.93
2023-04-02T10:19:25.160Z,9.87
2023-04-02T10:24:28.710Z,9.83
2023-04-02T10:29:33.397Z,9.83
2023-04-02T10:34:42.812Z,9.76
2023-04-02T10:39:53.451Z,9.83
2023-04-02T10:45:01.205Z,9.91
2023-04-02T10:50:15.154Z,9.95
2023-04-02T10:55:21.235Z,9.96
2023-04-02T11:00:31.057Z,9.98
2023-04-02T11:05:40.241Z,10.12
2023-04-02T11:10:46.868Z,10.20
2023-04-02T11:15:48.898Z,10.28
2023-04-02T11:20:51.095Z,10.29
2023-04-02T11:26:27.830Z,10.46
2023-04-02T11:31:29.641Z,10.54
2023-04-02T11:36:50.853Z,10.67
2023-04-02T11:42:05.034Z,10.68
2023-04-02T11:47:24.166Z,10.67
2023-04-02T11:52:34.042Z,10.68
2023-04-02T11:58:07.422Z,10.68
2023-04-02T12:03:25.626Z,10.62
2023-04-02T12:08:56.994Z,10.63
2023-04-02T12:14:00.150Z,10.77
2023-04-02T12:19:03.551Z,10.76
2023-04-02T12:24:06.346Z,10.68
2023-04-02T12:29:23.785Z,10.01
2023-04-02T12:34:30.136Z,9.63
2023-04-02T12:39:34.548Z,9.57
2023-04-02T12:44:36.328Z,9.62
2023-04-02T12:49:41.339Z,9.64
2023-04-02T12:54:49.683Z,9.66
2023-04-02T12:59:52.605Z,9.65
2023-04-02T13:04:57.017Z,9.64
2023-04-02T13:10:00.868Z,9.86
2023-04-02T13:15:06.399Z,9.96
2023-04-02T13:20:27.899Z,10.02
2023-04-02T13:25:34.584Z,10.12
2023-04-02T13:30:37.094Z,10.14
2023-04-02T13:35:38.991Z,10.19
2023-04-02T13:40:41.233Z,10.13
2023-04-02T13:45:44.123Z,10.10
2023-04-02T13:50:46.604Z,10.05
2023-04-02T13:55:49.205Z,9.92
2023-04-02T14:00:51.185Z,9.99
2023-04-02T14:05:58.996Z,9.92
2023-04-02T14:11:19.436Z,9.87
2023-04-02T14:16:44.044Z,9.92
2023-04-02T14:21:57.317Z,9.81
2023-04-02T14:27:32.789Z,9.80
2023-04-02T14:32:53.398Z,9.88
2023-04-02T14:38:23.923Z,9.99
2023-04-02T14:43:31.372Z,9.98
2023-04-02T14:48:48.769Z,9.95
2023-04-02T14:54:22.694Z,9.88
2023-04-02T14:59:32.578Z,9.85
2023-04-02T15:04:43.203Z,9.70
2023-04-02T15:09:52.063Z,9.56
2023-04-02T15:15:02.288Z,9.51
2023-04-02T15:20:16.443Z,9.43
2023-04-02T15:25:21.027Z,9.35
2023-04-02T15:30:29.451Z,9.23
2023-04-02T15:35:45.507Z,9.18
2023-04-02T15:41:15.341Z,9.20
2023-04-02T15:46:29.284Z,9.26
2023-04-02T15:51:37.097Z,9.25
2023-04-02T15:57:08.926Z,9.22
2023-04-02T16:02:32.738Z,9.16
2023-04-02T16:08:11.340Z,8.95
2023-04-02T16:13:35.829Z,8.82
2023-04-02T16:19:15.681Z,8.70
2023-04-02T16:24:18.585Z,8.61
2023-04-02T16:29:47.025Z,8.55
2023-04-02T16:35:41.835Z,8.50
2023-04-02T16:41:07.719Z,8.42
2023-04-02T16:46:40.547Z,8.40
2023-04-02T16:52:02.378Z,8.32
2023-04-02T16:57:23.188Z,8.33
2023-04-02T17:02:46.395Z,8.32
2023-04-02T17:08:01.506Z,8.11
2023-04-02T17:13:19.592Z,8.02
2023-04-02T17:18:24.751Z,8.04
2023-04-02T17:23:28.239Z,8.02
2023-04-02T17:28:36.966Z,8.01
2023-04-02T17:33:39.023Z,7.96
2023-04-02T17:38:59.804Z,7.88
2023-04-02T17:44:07.708Z,7.76
2023-04-02T17:49:25.310Z,7.65
2023-04-02T17:54:46.732Z,7.58
2023-04-02T18:00:16.167Z,7.48
2023-04-02T18:05:30.808Z,7.38
2023-04-02T18:11:00.219Z,7.34
2023-04-02T18:16:20.388Z,7.23
2023-04-02T18:21:43.423Z,7.10
2023-04-02T18:27:09.533Z,6.98
2023-04-02T18:32:26.118Z,6.89
2023-04-02T18:37:30.812Z,6.79
2023-04-02T18:42:51.561Z,6.66
2023-04-02T18:48:12.252Z,6.57
2023-04-02T18:53:17.264Z,6.43
2023-04-02T18:58:52.824Z,6.39
2023-04-02T19:04:03.852Z,6.32
2023-04-02T19:09:34.194Z,6.26
2023-04-02T19:14:35.985Z,6.19
2023-04-02T19:19:42.861Z,6.07
2023-04-02T19:25:07.807Z,6.04
2023-04-02T19:30:26.617Z,6.03
2023-04-02T19:35:35.834Z,6.03
2023-04-02T19:41:03.931Z,5.93
2023-04-02T19:46:06.144Z,5.86
2023-04-02T19:51:07.813Z,5.78
2023-04-02T19:56:09.561Z,5.76
2023-04-02T20:01:11.401Z,5.62
2023-04-02T20:06:13.163Z,5.55
2023-04-02T20:11:15.568Z,5.53
2023-04-02T20:16:17.551Z,5.41
2023-04-02T20:21:19.933Z,5.37
2023-04-02T20:26:22.543Z,5.46
2023-04-02T20:31:24.645Z,5.44
2023-04-02T20:36:26.478Z,5.35
2023-04-02T20:41:28.229Z,5.34
2023-04-02T20:46:30.219Z,5.36
2023-04-02T20:51:32.645Z,5.38
2023-04-02T20:56:34.640Z,5.44
2023-04-02T21:01:37.596Z,5.48
2023-04-02T21:06:40.849Z,5.42
2023-04-02T21:11:43.607Z,5.41
2023-04-02T21:16:45.363Z,5.46
2023-04-02T21:21:47.058Z,5.50
2023-04-02T21:26:49.956Z,5.42
2023-04-02T21:31:52.392Z,5.38
2023-04-02T21:36:54.279Z,5.34
2023-04-02T21:41:56.386Z,5.25
2023-04-02T21:46:58.152Z,5.27
2023-04-02T21:51:59.957Z,5.29
2023-04-02T21:57:01.655Z,5.35
2023-04-02T22:02:04.724Z,5.34
2023-04-02T22:07:06.488Z,5.39
2023-04-02T22:12:08.367Z,5.34
2023-04-02T22:17:10.061Z,5.36
2023-04-02T22:22:11.785Z,5.41
2023-04-02T22:27:13.501Z,5.38
2023-04-02T22:32:15.368Z,5.42
2023-04-02T22:37:17.353Z,5.46
2023-04-02T22:42:19.033Z,5.40
2023-04-02T22:47:20.982Z,5.40
2023-04-02T22:52:22.928Z,5.41
2023-04-02T22:57:24.621Z,5.44
2023-04-02T23:02:27.507Z,5.44
2023-04-02T23:07:29.212Z,5.32
2023-04-02T23:12:31.066Z,5.33
2023-04-02T23:17:32.829Z,5.35
2023-04-02T23:22:34.741Z,5.42
2023-04-02T23:27:36.864Z,5.36
2023-04-02T23:32:38.633Z,5.40
2023-04-02T23:37:41.991Z,5.48
2023-04-02T23:42:44.002Z,5.45
2023-04-02T23:47:45.701Z,5.44
2023-04-02T23:52:47.573Z,5.34
2023-04-02T23:57:49.218Z,5.33
